sensor_id;sensor_type;location;lat;lon;timestamp;temperature;humidity
45104;DHT22;30865;51.288;4.572;2023-05-10T00:01:32;14.40;99.90
45104;DHT22;30865;51.288;4.572;2023-05-10T00:03:58;14.40;99.90
45104;DHT22;30865;51.288;4.572;2023-05-10T00:06:23;14.40;99.90
45104;DHT22;30865;51.288;4.572;2023-05-10T00:08:49;14.30;99.90
45104;DHT22;30865;51.288;4.572;2023-05-10T00:11:14;14.30;99.90
45104;DHT22;30865;51.288;4.572;2023-05-10T00:13:40;14.40;99.90
45104;DHT22;30865;51.288;4.572;2023-05-10T00:16:05;14.30;99.90
45104;DHT22;30865;51.288;4.572;2023-05-10T00:18:31;14.40;99.90
45104;DHT22;30865;51.288;4.572;2023-05-10T00:20:56;14.30;99.90
45104;DHT22;30865;51.288;4.572;2023-05-10T00:23:22;14.30;99.90
45104;DHT22;30865;51.288;4.572;2023-05-10T00:25:47;14.20;99.90
45104;DHT22;30865;51.288;4.572;2023-05-10T00:28:13;14.30;99.90
45104;DHT22;30865;51.288;4.572;2023-05-10T00:30:38;14.20;99.90
45104;DHT22;30865;51.288;4.572;2023-05-10T00:33:04;14.10;99.90
45104;DHT22;30865;51.288;4.572;2023-05-10T00:35:29;14.00;99.90
45104;DHT22;30865;51.288;4.572;2023-05-10T00:37:55;14.00;99.90
45104;DHT22;30865;51.288;4.572;2023-05-10T00:40:21;13.90;99.90
45104;DHT22;30865;51.288;4.572;2023-05-10T00:42:46;13.90;99.90
45104;DHT22;30865;51.288;4.572;2023-05-10T00:45:11;13.90;99.90
45104;DHT22;30865;51.288;4.572;2023-05-10T00:47:37;13.80;99.90
45104;DHT22;30865;51.288;4.572;2023-05-10T00:50:04;13.80;99.90
45104;DHT22;30865;51.288;4.572;2023-05-10T00:52:30;13.80;99.90
45104;DHT22;30865;51.288;4.572;2023-05-10T00:54:56;13.80;99.90
45104;DHT22;30865;51.288;4.572;2023-05-10T00:57:23;13.80;99.90
45104;DHT22;30865;51.288;4.572;2023-05-10T00:59:49;13.70;99.90
45104;DHT22;30865;51.288;4.572;2023-05-10T01:02:15;13.70;99.90
45104;DHT22;30865;51.288;4.572;2023-05-10T01:04:41;13.70;99.90
45104;DHT22;30865;51.288;4.572;2023-05-10T01:07:06;13.60;99.90
45104;DHT22;30865;51.288;4.572;2023-05-10T01:09:41;13.60;99.90
45104;DHT22;30865;51.288;4.572;2023-05-10T01:12:07;13.60;99.90
45104;DHT22;30865;51.288;4.572;2023-05-10T01:14:33;13.60;99.90
45104;DHT22;30865;51.288;4.572;2023-05-10T01:17:00;13.60;99.90
45104;DHT22;30865;51.288;4.572;2023-05-10T01:19:27;13.60;99.90
45104;DHT22;30865;51.288;4.572;2023-05-10T01:22:02;13.50;99.90
45104;DHT22;30865;51.288;4.572;2023-05-10T01:30:35;13.50;99.90
45104;DHT22;30865;51.288;4.572;2023-05-10T01:33:10;13.50;99.90
45104;DHT22;30865;51.288;4.572;2023-05-10T01:38:48;13.40;99.90
45104;DHT22;30865;51.288;4.572;2023-05-10T01:47:07;13.40;99.90
45104;DHT22;30865;51.288;4.572;2023-05-10T01:49:42;13.30;99.90
45104;DHT22;30865;51.288;4.572;2023-05-10T01:52:12;13.30;99.90
45104;DHT22;30865;51.288;4.572;2023-05-10T01:54:41;13.30;99.90
45104;DHT22;30865;51.288;4.572;2023-05-10T01:57:09;13.30;99.90
45104;DHT22;30865;51.288;4.572;2023-05-10T01:59:38;13.40;99.90
45104;DHT22;30865;51.288;4.572;2023-05-10T02:02:07;13.40;99.90
45104;DHT22;30865;51.288;4.572;2023-05-10T02:04:37;13.30;99.90
45104;DHT22;30865;51.288;4.572;2023-05-10T02:07:04;13.20;99.90
45104;DHT22;30865;51.288;4.572;2023-05-10T02:09:32;13.20;99.90
45104;DHT22;30865;51.288;4.572;2023-05-10T02:12:00;13.20;99.90
45104;DHT22;30865;51.288;4.572;2023-05-10T02:14:29;13.20;99.90
45104;DHT22;30865;51.288;4.572;2023-05-10T02:16:56;13.20;99.90
45104;DHT22;30865;51.288;4.572;2023-05-10T02:19:23;13.10;99.90
45104;DHT22;30865;51.288;4.572;2023-05-10T02:22:00;13.20;99.90
45104;DHT22;30865;51.288;4.572;2023-05-10T02:24:27;13.00;99.90
45104;DHT22;30865;51.288;4.572;2023-05-10T02:26:54;13.20;99.90
45104;DHT22;30865;51.288;4.572;2023-05-10T02:29:23;13.10;99.90
45104;DHT22;30865;51.288;4.572;2023-05-10T02:31:51;13.10;99.90
45104;DHT22;30865;51.288;4.572;2023-05-10T02:34:19;13.00;99.90
45104;DHT22;30865;51.288;4.572;2023-05-10T02:36:47;13.10;99.90
45104;DHT22;30865;51.288;4.572;2023-05-10T02:39:14;13.10;99.90
45104;DHT22;30865;51.288;4.572;2023-05-10T02:41:41;13.00;99.90
45104;DHT22;30865;51.288;4.572;2023-05-10T02:44:07;13.10;99.90
45104;DHT22;30865;51.288;4.572;2023-05-10T02:46:34;13.10;99.90
45104;DHT22;30865;51.288;4.572;2023-05-10T02:49:01;13.10;99.90
45104;DHT22;30865;51.288;4.572;2023-05-10T02:51:31;13.20;99.90
45104;DHT22;30865;51.288;4.572;2023-05-10T02:54:04;13.10;99.90
45104;DHT22;30865;51.288;4.572;2023-05-10T02:56:35;13.10;99.90
45104;DHT22;30865;51.288;4.572;2023-05-10T02:59:01;13.10;99.90
45104;DHT22;30865;51.288;4.572;2023-05-10T03:01:27;13.20;99.90
45104;DHT22;30865;51.288;4.572;2023-05-10T03:03:52;13.10;99.90
45104;DHT22;30865;51.288;4.572;2023-05-10T03:06:18;13.20;99.90
45104;DHT22;30865;51.288;4.572;2023-05-10T03:08:44;13.20;99.90
45104;DHT22;30865;51.288;4.572;2023-05-10T03:11:32;13.10;99.90
45104;DHT22;30865;51.288;4.572;2023-05-10T03:14:22;13.10;99.90
45104;DHT22;30865;51.288;4.572;2023-05-10T03:17:06;13.10;99.90
45104;DHT22;30865;51.288;4.572;2023-05-10T03:19:53;13.10;99.90
45104;DHT22;30865;51.288;4.572;2023-05-10T03:23:41;13.10;99.90
45104;DHT22;30865;51.288;4.572;2023-05-10T03:25:35;13.10;99.90
45104;DHT22;30865;51.288;4.572;2023-05-10T03:28:01;13.10;99.90
45104;DHT22;30865;51.288;4.572;2023-05-10T03:30:29;13.10;99.90
45104;DHT22;30865;51.288;4.572;2023-05-10T03:33:08;13.10;99.90
45104;DHT22;30865;51.288;4.572;2023-05-10T03:35:33;13.20;99.90
45104;DHT22;30865;51.288;4.572;2023-05-10T03:37:59;13.20;99.90
45104;DHT22;30865;51.288;4.572;2023-05-10T03:40:26;13.20;99.90
45104;DHT22;30865;51.288;4.572;2023-05-10T03:42:54;13.20;99.90
45104;DHT22;30865;51.288;4.572;2023-05-10T03:45:20;13.10;99.90
45104;DHT22;30865;51.288;4.572;2023-05-10T03:47:45;13.10;99.90
45104;DHT22;30865;51.288;4.572;2023-05-10T03:50:11;13.10;99.90
45104;DHT22;30865;51.288;4.572;2023-05-10T03:52:36;13.10;99.90
45104;DHT22;30865;51.288;4.572;2023-05-10T03:55:04;13.10;99.90
45104;DHT22;30865;51.288;4.572;2023-05-10T03:57:30;13.10;99.90
45104;DHT22;30865;51.288;4.572;2023-05-10T03:59:56;13.10;99.90
45104;DHT22;30865;51.288;4.572;2023-05-10T04:02:21;13.10;99.90
45104;DHT22;30865;51.288;4.572;2023-05-10T04:04:47;13.10;99.90
45104;DHT22;30865;51.288;4.572;2023-05-10T04:07:13;13.10;99.90
45104;DHT22;30865;51.288;4.572;2023-05-10T04:09:39;13.00;99.90
45104;DHT22;30865;51.288;4.572;2023-05-10T04:12:04;12.90;99.90
45104;DHT22;30865;51.288;4.572;2023-05-10T04:14:30;12.90;99.90
45104;DHT22;30865;51.288;4.572;2023-05-10T04:16:56;12.90;99.90
45104;DHT22;30865;51.288;4.572;2023-05-10T04:19:21;12.90;99.90
45104;DHT22;30865;51.288;4.572;2023-05-10T04:21:48;12.90;99.90
45104;DHT22;30865;51.288;4.572;2023-05-10T04:24:13;12.90;99.90
45104;DHT22;30865;51.288;4.572;2023-05-10T04:26:39;12.90;99.90
45104;DHT22;30865;51.288;4.572;2023-05-10T04:29:04;12.90;99.90
45104;DHT22;30865;51.288;4.572;2023-05-10T04:31:30;12.90;99.90
45104;DHT22;30865;51.288;4.572;2023-05-10T04:33:55;12.90;99.90
45104;DHT22;30865;51.288;4.572;2023-05-10T04:36:21;12.90;99.90
45104;DHT22;30865;51.288;4.572;2023-05-10T04:38:46;13.00;99.90
45104;DHT22;30865;51.288;4.572;2023-05-10T04:41:12;13.00;99.90
45104;DHT22;30865;51.288;4.572;2023-05-10T04:43:38;13.00;99.90
45104;DHT22;30865;51.288;4.572;2023-05-10T04:46:04;13.00;99.90
45104;DHT22;30865;51.288;4.572;2023-05-10T04:48:30;13.00;99.90
45104;DHT22;30865;51.288;4.572;2023-05-10T04:50:56;13.00;99.90
45104;DHT22;30865;51.288;4.572;2023-05-10T04:53:21;13.00;99.90
45104;DHT22;30865;51.288;4.572;2023-05-10T04:55:47;13.00;99.90
45104;DHT22;30865;51.288;4.572;2023-05-10T04:58:15;13.00;99.90
45104;DHT22;30865;51.288;4.572;2023-05-10T05:00:40;13.00;99.90
45104;DHT22;30865;51.288;4.572;2023-05-10T05:03:06;13.10;99.90
45104;DHT22;30865;51.288;4.572;2023-05-10T05:05:32;13.10;99.90
45104;DHT22;30865;51.288;4.572;2023-05-10T05:07:57;13.10;99.90
45104;DHT22;30865;51.288;4.572;2023-05-10T05:10:23;13.10;99.90
45104;DHT22;30865;51.288;4.572;2023-05-10T05:12:48;13.10;99.90
45104;DHT22;30865;51.288;4.572;2023-05-10T05:15:14;13.30;99.90
45104;DHT22;30865;51.288;4.572;2023-05-10T05:17:41;13.30;99.90
45104;DHT22;30865;51.288;4.572;2023-05-10T05:22:33;13.50;99.90
45104;DHT22;30865;51.288;4.572;2023-05-10T05:25:00;13.50;99.90
45104;DHT22;30865;51.288;4.572;2023-05-10T05:27:27;13.50;99.90
45104;DHT22;30865;51.288;4.572;2023-05-10T05:29:53;13.40;99.90
45104;DHT22;30865;51.288;4.572;2023-05-10T05:32:19;13.40;99.90
45104;DHT22;30865;51.288;4.572;2023-05-10T05:34:45;13.50;99.90
45104;DHT22;30865;51.288;4.572;2023-05-10T05:37:14;13.40;99.90
45104;DHT22;30865;51.288;4.572;2023-05-10T05:39:40;13.50;99.90
45104;DHT22;30865;51.288;4.572;2023-05-10T05:42:05;13.60;99.90
45104;DHT22;30865;51.288;4.572;2023-05-10T05:44:31;13.60;99.90
45104;DHT22;30865;51.288;4.572;2023-05-10T05:46:56;13.60;99.90
45104;DHT22;30865;51.288;4.572;2023-05-10T05:49:22;13.90;99.90
45104;DHT22;30865;51.288;4.572;2023-05-10T05:51:50;13.90;99.90
45104;DHT22;30865;51.288;4.572;2023-05-10T05:54:17;13.80;99.90
45104;DHT22;30865;51.288;4.572;2023-05-10T05:56:43;13.70;99.90
45104;DHT22;30865;51.288;4.572;2023-05-10T05:59:12;13.70;99.90
45104;DHT22;30865;51.288;4.572;2023-05-10T06:01:38;13.70;99.90
45104;DHT22;30865;51.288;4.572;2023-05-10T06:04:03;13.70;99.90
45104;DHT22;30865;51.288;4.572;2023-05-10T06:06:29;13.70;99.90
45104;DHT22;30865;51.288;4.572;2023-05-10T06:08:54;13.70;99.90
45104;DHT22;30865;51.288;4.572;2023-05-10T06:11:20;13.70;99.90
45104;DHT22;30865;51.288;4.572;2023-05-10T06:13:47;13.70;99.90
45104;DHT22;30865;51.288;4.572;2023-05-10T06:16:12;13.70;99.90
45104;DHT22;30865;51.288;4.572;2023-05-10T06:18:38;13.70;99.90
45104;DHT22;30865;51.288;4.572;2023-05-10T06:21:04;13.80;99.90
45104;DHT22;30865;51.288;4.572;2023-05-10T06:23:29;13.90;99.90
45104;DHT22;30865;51.288;4.572;2023-05-10T06:25:55;13.90;99.90
45104;DHT22;30865;51.288;4.572;2023-05-10T06:28:20;13.90;99.90
45104;DHT22;30865;51.288;4.572;2023-05-10T06:30:46;14.00;99.90
45104;DHT22;30865;51.288;4.572;2023-05-10T06:33:11;14.00;99.90
45104;DHT22;30865;51.288;4.572;2023-05-10T06:35:37;14.00;99.90
45104;DHT22;30865;51.288;4.572;2023-05-10T06:38:04;14.10;99.90
45104;DHT22;30865;51.288;4.572;2023-05-10T06:40:29;14.00;99.90
45104;DHT22;30865;51.288;4.572;2023-05-10T06:42:55;14.10;99.90
45104;DHT22;30865;51.288;4.572;2023-05-10T06:45:20;14.10;99.90
45104;DHT22;30865;51.288;4.572;2023-05-10T06:47:46;14.10;99.90
45104;DHT22;30865;51.288;4.572;2023-05-10T06:50:12;14.20;99.90
45104;DHT22;30865;51.288;4.572;2023-05-10T06:52:38;14.50;99.90
45104;DHT22;30865;51.288;4.572;2023-05-10T06:55:04;14.30;99.90
45104;DHT22;30865;51.288;4.572;2023-05-10T06:57:30;14.20;99.90
45104;DHT22;30865;51.288;4.572;2023-05-10T06:59:56;14.10;99.90
45104;DHT22;30865;51.288;4.572;2023-05-10T07:02:23;14.10;99.90
45104;DHT22;30865;51.288;4.572;2023-05-10T07:04:48;14.10;99.90
45104;DHT22;30865;51.288;4.572;2023-05-10T07:07:14;14.10;99.90
45104;DHT22;30865;51.288;4.572;2023-05-10T07:09:40;14.00;99.90
45104;DHT22;30865;51.288;4.572;2023-05-10T07:12:06;14.00;99.90
45104;DHT22;30865;51.288;4.572;2023-05-10T07:14:31;14.20;99.90
45104;DHT22;30865;51.288;4.572;2023-05-10T07:16:57;14.20;99.90
45104;DHT22;30865;51.288;4.572;2023-05-10T07:19:22;14.20;99.90
45104;DHT22;30865;51.288;4.572;2023-05-10T07:21:48;14.20;99.90
45104;DHT22;30865;51.288;4.572;2023-05-10T07:24:13;14.30;99.90
45104;DHT22;30865;51.288;4.572;2023-05-10T07:26:49;14.30;99.90
45104;DHT22;30865;51.288;4.572;2023-05-10T07:29:15;14.50;99.90
45104;DHT22;30865;51.288;4.572;2023-05-10T07:31:41;14.60;99.90
45104;DHT22;30865;51.288;4.572;2023-05-10T07:34:08;14.70;99.90
45104;DHT22;30865;51.288;4.572;2023-05-10T07:36:34;14.80;99.90
45104;DHT22;30865;51.288;4.572;2023-05-10T07:38:59;14.90;99.90
45104;DHT22;30865;51.288;4.572;2023-05-10T07:41:25;15.10;99.90
45104;DHT22;30865;51.288;4.572;2023-05-10T07:43:51;15.10;99.90
45104;DHT22;30865;51.288;4.572;2023-05-10T07:46:16;15.00;99.90
45104;DHT22;30865;51.288;4.572;2023-05-10T07:48:42;15.00;99.90
45104;DHT22;30865;51.288;4.572;2023-05-10T07:51:07;15.10;99.90
45104;DHT22;30865;51.288;4.572;2023-05-10T07:53:34;15.30;99.90
45104;DHT22;30865;51.288;4.572;2023-05-10T07:56:21;15.30;99.90
45104;DHT22;30865;51.288;4.572;2023-05-10T07:58:46;15.40;99.90
45104;DHT22;30865;51.288;4.572;2023-05-10T08:01:12;15.40;99.90
45104;DHT22;30865;51.288;4.572;2023-05-10T08:03:37;15.40;99.90
45104;DHT22;30865;51.288;4.572;2023-05-10T08:06:03;15.40;99.90
45104;DHT22;30865;51.288;4.572;2023-05-10T08:08:29;15.30;99.90
45104;DHT22;30865;51.288;4.572;2023-05-10T08:10:54;15.20;99.90
45104;DHT22;30865;51.288;4.572;2023-05-10T08:13:21;15.40;99.90
45104;DHT22;30865;51.288;4.572;2023-05-10T08:15:46;15.50;99.90
45104;DHT22;30865;51.288;4.572;2023-05-10T08:18:12;15.50;99.90
45104;DHT22;30865;51.288;4.572;2023-05-10T08:20:38;15.10;99.90
45104;DHT22;30865;51.288;4.572;2023-05-10T08:23:03;15.30;99.90
45104;DHT22;30865;51.288;4.572;2023-05-10T08:25:29;15.30;99.90
45104;DHT22;30865;51.288;4.572;2023-05-10T08:27:54;15.40;99.90
45104;DHT22;30865;51.288;4.572;2023-05-10T08:30:20;15.10;99.90
45104;DHT22;30865;51.288;4.572;2023-05-10T08:32:45;15.30;99.90
45104;DHT22;30865;51.288;4.572;2023-05-10T08:35:11;15.30;99.90
45104;DHT22;30865;51.288;4.572;2023-05-10T08:37:37;15.20;99.90
45104;DHT22;30865;51.288;4.572;2023-05-10T08:40:02;14.90;99.90
45104;DHT22;30865;51.288;4.572;2023-05-10T08:42:30;15.00;99.90
45104;DHT22;30865;51.288;4.572;2023-05-10T08:44:57;15.00;99.90
45104;DHT22;30865;51.288;4.572;2023-05-10T08:47:22;14.90;99.90
45104;DHT22;30865;51.288;4.572;2023-05-10T08:49:48;14.90;99.90
45104;DHT22;30865;51.288;4.572;2023-05-10T08:52:17;15.00;99.90
45104;DHT22;30865;51.288;4.572;2023-05-10T08:54:43;15.10;99.90
45104;DHT22;30865;51.288;4.572;2023-05-10T08:57:10;15.20;99.90
45104;DHT22;30865;51.288;4.572;2023-05-10T08:59:35;15.00;99.90
45104;DHT22;30865;51.288;4.572;2023-05-10T09:02:04;14.90;99.90
45104;DHT22;30865;51.288;4.572;2023-05-10T09:04:30;15.10;99.90
45104;DHT22;30865;51.288;4.572;2023-05-10T09:06:56;15.30;99.90
45104;DHT22;30865;51.288;4.572;2023-05-10T09:09:23;15.30;99.90
45104;DHT22;30865;51.288;4.572;2023-05-10T09:11:49;15.50;99.90
45104;DHT22;30865;51.288;4.572;2023-05-10T09:14:15;15.70;99.90
45104;DHT22;30865;51.288;4.572;2023-05-10T09:16:41;15.70;99.90
45104;DHT22;30865;51.288;4.572;2023-05-10T09:19:07;15.70;99.90
45104;DHT22;30865;51.288;4.572;2023-05-10T09:21:35;15.80;99.90
45104;DHT22;30865;51.288;4.572;2023-05-10T09:24:04;15.90;99.90
45104;DHT22;30865;51.288;4.572;2023-05-10T09:26:30;16.10;99.90
45104;DHT22;30865;51.288;4.572;2023-05-10T09:28:57;16.40;99.90
45104;DHT22;30865;51.288;4.572;2023-05-10T09:31:23;16.50;99.90
45104;DHT22;30865;51.288;4.572;2023-05-10T09:33:50;16.40;99.90
45104;DHT22;30865;51.288;4.572;2023-05-10T09:36:17;16.50;99.90
45104;DHT22;30865;51.288;4.572;2023-05-10T09:38:50;16.20;99.90
45104;DHT22;30865;51.288;4.572;2023-05-10T09:41:21;16.00;99.90
45104;DHT22;30865;51.288;4.572;2023-05-10T09:43:47;16.20;99.90
45104;DHT22;30865;51.288;4.572;2023-05-10T09:46:13;16.00;99.90
45104;DHT22;30865;51.288;4.572;2023-05-10T09:48:47;16.00;99.90
45104;DHT22;30865;51.288;4.572;2023-05-10T09:51:25;15.90;99.90
45104;DHT22;30865;51.288;4.572;2023-05-10T09:54:15;16.10;99.90
45104;DHT22;30865;51.288;4.572;2023-05-10T09:56:41;15.80;99.90
45104;DHT22;30865;51.288;4.572;2023-05-10T09:59:18;15.70;99.90
45104;DHT22;30865;51.288;4.572;2023-05-10T10:01:49;15.80;99.90
45104;DHT22;30865;51.288;4.572;2023-05-10T10:04:15;16.10;99.90
45104;DHT22;30865;51.288;4.572;2023-05-10T10:06:41;16.20;99.90
45104;DHT22;30865;51.288;4.572;2023-05-10T10:09:07;16.40;99.90
45104;DHT22;30865;51.288;4.572;2023-05-10T10:11:38;16.40;99.90
45104;DHT22;30865;51.288;4.572;2023-05-10T10:14:04;16.50;99.90
45104;DHT22;30865;51.288;4.572;2023-05-10T10:16:30;16.30;99.90
45104;DHT22;30865;51.288;4.572;2023-05-10T10:18:56;16.20;99.90
45104;DHT22;30865;51.288;4.572;2023-05-10T10:21:31;16.30;99.90
45104;DHT22;30865;51.288;4.572;2023-05-10T10:23:57;16.50;99.90
45104;DHT22;30865;51.288;4.572;2023-05-10T10:26:23;16.70;99.90
45104;DHT22;30865;51.288;4.572;2023-05-10T10:29:26;16.80;99.90
45104;DHT22;30865;51.288;4.572;2023-05-10T10:32:10;17.00;99.90
45104;DHT22;30865;51.288;4.572;2023-05-10T10:34:39;17.30;99.90
45104;DHT22;30865;51.288;4.572;2023-05-10T10:37:05;17.60;99.90
45104;DHT22;30865;51.288;4.572;2023-05-10T10:39:31;17.70;99.90
45104;DHT22;30865;51.288;4.572;2023-05-10T10:41:58;17.80;99.90
45104;DHT22;30865;51.288;4.572;2023-05-10T10:52:22;17.90;99.90
45104;DHT22;30865;51.288;4.572;2023-05-10T10:57:24;18.00;99.90
45104;DHT22;30865;51.288;4.572;2023-05-10T10:59:53;17.80;99.90
45104;DHT22;30865;51.288;4.572;2023-05-10T11:02:43;17.80;99.90
45104;DHT22;30865;51.288;4.572;2023-05-10T11:05:34;17.60;99.90
45104;DHT22;30865;51.288;4.572;2023-05-10T11:08:29;17.50;99.90
45104;DHT22;30865;51.288;4.572;2023-05-10T11:13:47;16.70;99.90
45104;DHT22;30865;51.288;4.572;2023-05-10T11:16:21;16.60;99.90
45104;DHT22;30865;51.288;4.572;2023-05-10T11:19:01;16.50;99.90
45104;DHT22;30865;51.288;4.572;2023-05-10T11:21:29;16.50;99.90
45104;DHT22;30865;51.288;4.572;2023-05-10T11:23:56;16.30;99.90
45104;DHT22;30865;51.288;4.572;2023-05-10T11:26:30;16.30;99.90
45104;DHT22;30865;51.288;4.572;2023-05-10T11:28:56;16.40;99.90
45104;DHT22;30865;51.288;4.572;2023-05-10T11:31:22;16.50;99.90
45104;DHT22;30865;51.288;4.572;2023-05-10T11:33:53;16.50;99.90
45104;DHT22;30865;51.288;4.572;2023-05-10T11:36:21;16.60;99.90
45104;DHT22;30865;51.288;4.572;2023-05-10T11:38:48;16.60;99.90
45104;DHT22;30865;51.288;4.572;2023-05-10T11:41:15;16.60;99.90
45104;DHT22;30865;51.288;4.572;2023-05-10T11:43:42;16.60;99.90
45104;DHT22;30865;51.288;4.572;2023-05-10T11:46:12;16.60;99.90
45104;DHT22;30865;51.288;4.572;2023-05-10T11:48:42;16.60;99.90
45104;DHT22;30865;51.288;4.572;2023-05-10T11:51:09;16.70;99.90
45104;DHT22;30865;51.288;4.572;2023-05-10T11:53:35;16.90;99.90
45104;DHT22;30865;51.288;4.572;2023-05-10T11:56:11;16.90;99.90
45104;DHT22;30865;51.288;4.572;2023-05-10T11:58:38;17.00;99.90
45104;DHT22;30865;51.288;4.572;2023-05-10T12:01:05;17.10;99.90
45104;DHT22;30865;51.288;4.572;2023-05-10T12:03:32;17.10;99.90
45104;DHT22;30865;51.288;4.572;2023-05-10T12:05:58;17.20;99.90
45104;DHT22;30865;51.288;4.572;2023-05-10T12:08:25;17.10;99.90
45104;DHT22;30865;51.288;4.572;2023-05-10T12:10:51;17.30;99.90
45104;DHT22;30865;51.288;4.572;2023-05-10T12:13:19;17.20;99.90
45104;DHT22;30865;51.288;4.572;2023-05-10T12:15:45;17.20;99.90
45104;DHT22;30865;51.288;4.572;2023-05-10T12:18:12;17.10;99.90
45104;DHT22;30865;51.288;4.572;2023-05-10T12:20:39;17.10;99.90
45104;DHT22;30865;51.288;4.572;2023-05-10T12:23:05;17.00;99.90
45104;DHT22;30865;51.288;4.572;2023-05-10T12:25:34;17.10;99.90
45104;DHT22;30865;51.288;4.572;2023-05-10T12:28:03;17.10;99.90
45104;DHT22;30865;51.288;4.572;2023-05-10T12:30:30;16.90;99.90
45104;DHT22;30865;51.288;4.572;2023-05-10T12:33:22;17.10;99.90
45104;DHT22;30865;51.288;4.572;2023-05-10T12:35:48;17.30;99.90
45104;DHT22;30865;51.288;4.572;2023-05-10T12:41:07;17.80;99.90
45104;DHT22;30865;51.288;4.572;2023-05-10T12:43:34;17.80;99.90
45104;DHT22;30865;51.288;4.572;2023-05-10T12:46:10;18.20;99.90
45104;DHT22;30865;51.288;4.572;2023-05-10T12:48:38;18.20;99.90
45104;DHT22;30865;51.288;4.572;2023-05-10T12:51:05;18.20;99.90
45104;DHT22;30865;51.288;4.572;2023-05-10T12:53:31;18.10;99.70
45104;DHT22;30865;51.288;4.572;2023-05-10T12:55:57;18.00;99.90
45104;DHT22;30865;51.288;4.572;2023-05-10T12:58:22;18.00;99.90
45104;DHT22;30865;51.288;4.572;2023-05-10T13:00:48;18.00;99.90
45104;DHT22;30865;51.288;4.572;2023-05-10T13:03:13;18.00;96.80
45104;DHT22;30865;51.288;4.572;2023-05-10T13:05:40;17.40;95.10
45104;DHT22;30865;51.288;4.572;2023-05-10T13:08:06;17.80;99.90
45104;DHT22;30865;51.288;4.572;2023-05-10T13:10:32;17.70;98.30
45104;DHT22;30865;51.288;4.572;2023-05-10T13:12:58;17.60;99.90
45104;DHT22;30865;51.288;4.572;2023-05-10T13:15:24;17.60;99.40
45104;DHT22;30865;51.288;4.572;2023-05-10T13:17:50;17.50;98.60
45104;DHT22;30865;51.288;4.572;2023-05-10T13:20:15;17.20;97.40
45104;DHT22;30865;51.288;4.572;2023-05-10T13:22:42;17.20;99.00
45104;DHT22;30865;51.288;4.572;2023-05-10T13:25:08;17.00;99.30
45104;DHT22;30865;51.288;4.572;2023-05-10T13:27:34;16.70;99.90
45104;DHT22;30865;51.288;4.572;2023-05-10T13:29:59;16.60;99.90
45104;DHT22;30865;51.288;4.572;2023-05-10T13:32:25;16.80;99.90
45104;DHT22;30865;51.288;4.572;2023-05-10T13:34:51;16.90;99.30
45104;DHT22;30865;51.288;4.572;2023-05-10T13:37:17;17.20;99.90
45104;DHT22;30865;51.288;4.572;2023-05-10T13:39:42;17.50;98.00
45104;DHT22;30865;51.288;4.572;2023-05-10T13:42:08;17.60;97.20
45104;DHT22;30865;51.288;4.572;2023-05-10T13:44:33;17.90;96.00
45104;DHT22;30865;51.288;4.572;2023-05-10T13:46:59;18.10;94.80
45104;DHT22;30865;51.288;4.572;2023-05-10T13:49:24;18.10;96.30
45104;DHT22;30865;51.288;4.572;2023-05-10T13:51:50;18.10;95.10
45104;DHT22;30865;51.288;4.572;2023-05-10T13:54:16;18.00;93.80
45104;DHT22;30865;51.288;4.572;2023-05-10T13:56:45;18.00;94.50
45104;DHT22;30865;51.288;4.572;2023-05-10T13:59:12;18.20;92.50
45104;DHT22;30865;51.288;4.572;2023-05-10T14:01:39;18.00;94.70
45104;DHT22;30865;51.288;4.572;2023-05-10T14:04:05;18.10;94.20
45104;DHT22;30865;51.288;4.572;2023-05-10T14:06:30;17.90;94.30
45104;DHT22;30865;51.288;4.572;2023-05-10T14:08:56;17.90;93.00
45104;DHT22;30865;51.288;4.572;2023-05-10T14:11:22;18.20;95.50
45104;DHT22;30865;51.288;4.572;2023-05-10T14:13:48;17.90;92.10
45104;DHT22;30865;51.288;4.572;2023-05-10T14:16:14;18.10;92.50
45104;DHT22;30865;51.288;4.572;2023-05-10T14:18:40;18.20;91.90
45104;DHT22;30865;51.288;4.572;2023-05-10T14:21:05;17.90;92.50
45104;DHT22;30865;51.288;4.572;2023-05-10T14:23:31;18.10;91.20
45104;DHT22;30865;51.288;4.572;2023-05-10T14:25:57;18.10;93.60
45104;DHT22;30865;51.288;4.572;2023-05-10T14:28:22;18.40;91.20
45104;DHT22;30865;51.288;4.572;2023-05-10T14:30:48;18.70;93.00
45104;DHT22;30865;51.288;4.572;2023-05-10T14:33:14;18.80;93.70
45104;DHT22;30865;51.288;4.572;2023-05-10T14:35:40;18.90;85.10
45104;DHT22;30865;51.288;4.572;2023-05-10T14:38:05;19.10;91.20
45104;DHT22;30865;51.288;4.572;2023-05-10T14:40:31;19.20;89.30
45104;DHT22;30865;51.288;4.572;2023-05-10T14:42:57;19.30;90.50
45104;DHT22;30865;51.288;4.572;2023-05-10T14:45:23;19.40;91.60
45104;DHT22;30865;51.288;4.572;2023-05-10T14:47:49;19.40;87.20
45104;DHT22;30865;51.288;4.572;2023-05-10T14:50:15;19.40;80.60
45104;DHT22;30865;51.288;4.572;2023-05-10T14:52:42;19.30;77.60
45104;DHT22;30865;51.288;4.572;2023-05-10T14:55:08;19.00;76.00
45104;DHT22;30865;51.288;4.572;2023-05-10T14:57:33;19.30;81.00
45104;DHT22;30865;51.288;4.572;2023-05-10T14:59:59;19.40;90.30
45104;DHT22;30865;51.288;4.572;2023-05-10T15:02:25;19.30;86.80
45104;DHT22;30865;51.288;4.572;2023-05-10T15:04:50;19.10;81.40
45104;DHT22;30865;51.288;4.572;2023-05-10T15:07:16;19.30;89.60
45104;DHT22;30865;51.288;4.572;2023-05-10T15:09:44;19.40;90.10
45104;DHT22;30865;51.288;4.572;2023-05-10T15:12:09;19.20;86.10
45104;DHT22;30865;51.288;4.572;2023-05-10T15:14:35;19.00;84.20
45104;DHT22;30865;51.288;4.572;2023-05-10T15:17:01;18.70;79.00
45104;DHT22;30865;51.288;4.572;2023-05-10T15:19:27;19.10;77.00
45104;DHT22;30865;51.288;4.572;2023-05-10T15:21:54;19.20;75.30
45104;DHT22;30865;51.288;4.572;2023-05-10T15:24:20;19.30;73.50
45104;DHT22;30865;51.288;4.572;2023-05-10T15:26:46;19.30;72.40
45104;DHT22;30865;51.288;4.572;2023-05-10T15:29:12;19.20;73.40
45104;DHT22;30865;51.288;4.572;2023-05-10T15:31:37;19.30;73.90
45104;DHT22;30865;51.288;4.572;2023-05-10T15:34:04;19.30;74.90
45104;DHT22;30865;51.288;4.572;2023-05-10T15:36:31;19.30;74.20
45104;DHT22;30865;51.288;4.572;2023-05-10T15:38:57;19.20;74.30
45104;DHT22;30865;51.288;4.572;2023-05-10T15:41:22;19.20;74.40
45104;DHT22;30865;51.288;4.572;2023-05-10T15:43:48;19.20;73.00
45104;DHT22;30865;51.288;4.572;2023-05-10T15:46:14;19.20;74.10
45104;DHT22;30865;51.288;4.572;2023-05-10T15:48:39;19.30;74.50
45104;DHT22;30865;51.288;4.572;2023-05-10T15:51:05;19.20;73.50
45104;DHT22;30865;51.288;4.572;2023-05-10T15:53:30;19.10;73.30
45104;DHT22;30865;51.288;4.572;2023-05-10T15:55:56;19.20;76.70
45104;DHT22;30865;51.288;4.572;2023-05-10T15:58:21;19.20;76.30
45104;DHT22;30865;51.288;4.572;2023-05-10T16:00:47;19.00;74.70
45104;DHT22;30865;51.288;4.572;2023-05-10T16:03:12;18.80;74.40
45104;DHT22;30865;51.288;4.572;2023-05-10T16:05:38;18.50;76.50